COLLECTOR_TAF_EDDF

EDDF 251100Z 2512/2618 21006KT 9999 SCT035